Time;durP1;ratioP1;P1;durP2;ratioP2;P2;SDS_P1;SDS_P2;PMS_P1;PMS_P2;Temp;Humidity;BMP_temperature;BMP_pressure;BME280_temperature;BME280_humidity;BME280_pressure;Samples;Min_cycle;Max_cycle;Signal;HPM_P1;HPM_P2
2022/06/30 00:01:37;;;;;;;2.10;1.60;;;20.30;99.90;;;;;;5056047;28;20518;-68
2022/06/30 00:04:03;;;;;;;2.38;1.60;;;20.30;99.90;;;;;;5056008;28;20044;-68
2022/06/30 00:06:29;;;;;;;2.97;1.73;;;20.50;99.90;;;;;;5073785;28;20094;-68
2022/06/30 00:08:55;;;;;;;3.13;1.83;;;20.20;99.90;;;;;;5073667;28;20044;-68
2022/06/30 00:11:21;;;;;;;2.17;1.60;;;20.10;99.90;;;;;;5073550;28;20045;-68
2022/06/30 00:13:47;;;;;;;1.88;1.45;;;20.10;99.90;;;;;;5073972;28;20037;-68
2022/06/30 00:16:13;;;;;;;2.47;1.70;;;20.10;99.90;;;;;;5073894;28;20091;-68
2022/06/30 00:18:39;;;;;;;2.38;1.75;;;20.10;99.90;;;;;;5072329;28;20403;-68
2022/06/30 00:21:05;;;;;;;2.97;1.52;;;20.00;99.90;;;;;;5073910;28;20036;-68
2022/06/30 00:23:31;;;;;;;2.95;1.70;;;20.00;99.90;;;;;;5072273;28;20101;-67
2022/06/30 00:25:57;;;;;;;2.47;1.85;;;19.90;99.90;;;;;;5073381;28;20082;-68
2022/06/30 00:28:23;;;;;;;2.90;1.90;;;19.90;99.90;;;;;;5073689;28;20037;-68
2022/06/30 00:30:51;;;;;;;2.47;1.90;;;19.90;99.90;;;;;;5073548;28;20163;-68
2022/06/30 00:33:17;;;;;;;3.70;2.13;;;19.80;99.90;;;;;;5055424;28;20048;-68
2022/06/30 00:35:44;;;;;;;2.83;1.98;;;19.70;99.90;;;;;;5073593;28;20134;-68
2022/06/30 00:38:10;;;;;;;2.88;1.80;;;19.70;99.90;;;;;;5073221;28;20039;-68
2022/06/30 00:40:41;;;;;;;5.15;2.17;;;19.60;99.90;;;;;;5073464;28;20388;-68
2022/06/30 00:43:07;;;;;;;2.53;1.88;;;19.50;99.90;;;;;;5055248;28;20119;-68
2022/06/30 00:45:38;;;;;;;2.90;2.10;;;19.40;99.90;;;;;;5073232;28;20071;-68
2022/06/30 00:48:04;;;;;;;3.63;2.20;;;19.30;99.90;;;;;;5055240;28;20399;-68
2022/06/30 00:50:30;;;;;;;3.47;2.20;;;19.30;99.90;;;;;;5073266;28;20072;-68
2022/06/30 00:52:57;;;;;;;3.58;2.17;;;19.20;99.90;;;;;;5073400;28;20032;-68
2022/06/30 00:55:24;;;;;;;3.28;2.10;;;19.10;99.90;;;;;;5055030;28;20044;-68
2022/06/30 00:57:52;;;;;;;3.20;2.38;;;19.00;99.90;;;;;;5054897;28;20383;-68
2022/06/30 01:00:17;;;;;;;3.83;2.25;;;19.00;99.90;;;;;;5073238;28;20091;-68
2022/06/30 01:02:43;;;;;;;3.03;1.92;;;18.90;99.90;;;;;;5073180;28;20102;-68
2022/06/30 01:05:09;;;;;;;2.83;1.88;;;18.90;99.90;;;;;;5072818;28;20040;-68
2022/06/30 01:07:35;;;;;;;2.70;2.05;;;18.80;99.90;;;;;;5054861;28;20127;-68
2022/06/30 01:12:47;;;;;;;2.80;2.15;;;18.60;99.90;;;;;;5054942;28;20169;-68
2022/06/30 01:15:15;;;;;;;2.40;1.70;;;18.70;99.90;;;;;;5073030;28;20028;-68
2022/06/30 01:17:42;;;;;;;3.80;1.77;;;18.70;99.90;;;;;;5073124;28;20124;-68
2022/06/30 01:20:09;;;;;;;2.47;1.92;;;18.70;99.90;;;;;;5072685;28;20123;-68
2022/06/30 01:22:35;;;;;;;2.60;1.80;;;18.70;99.90;;;;;;5038264;28;20128;-68
2022/06/30 01:25:01;;;;;;;3.22;2.03;;;18.60;99.90;;;;;;5072716;28;20040;-68
2022/06/30 01:27:27;;;;;;;1.77;1.60;;;18.70;99.90;;;;;;5054967;28;20484;-68
2022/06/30 01:29:53;;;;;;;2.80;1.95;;;18.70;99.90;;;;;;5072564;28;20048;-68
2022/06/30 01:32:19;;;;;;;1.98;1.60;;;18.80;99.90;;;;;;5072817;28;20040;-68
2022/06/30 01:34:44;;;;;;;2.17;1.60;;;18.80;99.90;;;;;;5054627;28;20415;-68
2022/06/30 01:37:10;;;;;;;6.05;1.73;;;18.80;99.90;;;;;;5072852;28;20110;-68
2022/06/30 01:39:36;;;;;;;2.38;1.88;;;18.70;99.90;;;;;;5055025;28;20121;-68
2022/06/30 01:42:02;;;;;;;2.22;1.80;;;18.80;99.90;;;;;;5054848;28;20480;-68
2022/06/30 01:44:28;;;;;;;2.17;1.80;;;18.80;99.90;;;;;;5054828;28;20438;-68
2022/06/30 01:46:54;;;;;;;3.97;1.52;;;18.80;99.90;;;;;;5054752;28;20130;-68
2022/06/30 01:49:20;;;;;;;2.35;1.65;;;18.80;99.90;;;;;;5072475;28;20119;-68
2022/06/30 01:51:45;;;;;;;2.90;1.80;;;18.90;99.90;;;;;;5072750;28;20059;-68
2022/06/30 01:54:11;;;;;;;1.98;1.70;;;18.90;99.90;;;;;;5054719;28;20032;-68
2022/06/30 01:56:38;;;;;;;1.45;1.30;;;18.80;99.90;;;;;;5054598;28;20122;-68
2022/06/30 01:59:05;;;;;;;2.28;1.80;;;18.90;99.90;;;;;;5072565;28;20378;-68
2022/06/30 02:01:31;;;;;;;2.72;1.70;;;18.90;99.90;;;;;;5072595;28;20123;-68
2022/06/30 02:04:46;;;;;;;2.00;1.50;;;18.80;99.90;;;;;;5072649;28;20036;-69
2022/06/30 02:06:43;;;;;;;2.60;1.58;;;18.80;99.90;;;;;;5054260;28;20053;-68
2022/06/30 02:09:08;;;;;;;2.10;1.70;;;18.80;99.90;;;;;;5073570;28;20059;-68
2022/06/30 02:11:34;;;;;;;2.25;1.40;;;18.70;99.90;;;;;;5058101;28;20080;-68
2022/06/30 02:14:00;;;;;;;1.90;1.63;;;18.70;99.90;;;;;;5075968;28;20154;-68
2022/06/30 02:16:26;;;;;;;4.10;1.63;;;18.60;99.90;;;;;;5075936;28;20041;-68
2022/06/30 02:18:51;;;;;;;2.42;1.50;;;18.60;99.90;;;;;;5076222;28;20068;-68
2022/06/30 02:21:17;;;;;;;1.55;1.35;;;18.60;99.90;;;;;;5075822;28;20051;-68
2022/06/30 02:23:43;;;;;;;3.22;1.60;;;18.50;99.90;;;;;;5076175;28;20395;-68
2022/06/30 02:26:09;;;;;;;2.28;1.70;;;18.50;99.90;;;;;;5075809;28;20037;-68
2022/06/30 02:28:35;;;;;;;2.65;1.75;;;18.30;99.90;;;;;;5076055;28;20047;-68
2022/06/30 02:31:00;;;;;;;2.42;1.60;;;18.50;99.90;;;;;;5075878;28;20076;-68
2022/06/30 02:33:26;;;;;;;4.22;2.00;;;18.30;99.90;;;;;;5075602;28;20041;-68
2022/06/30 02:35:51;;;;;;;3.35;2.30;;;18.20;99.90;;;;;;5075693;28;20048;-68
2022/06/30 02:38:17;;;;;;;3.88;2.13;;;18.20;99.90;;;;;;5057605;28;20037;-68
2022/06/30 02:40:43;;;;;;;3.83;2.10;;;18.20;99.90;;;;;;5075433;28;20458;-68
2022/06/30 02:43:08;;;;;;;4.03;2.47;;;18.40;99.90;;;;;;5075692;28;20043;-68
2022/06/30 02:45:34;;;;;;;3.72;2.08;;;18.10;99.90;;;;;;5075784;28;20040;-68
2022/06/30 02:48:00;;;;;;;4.43;2.72;;;18.10;99.90;;;;;;5075738;28;20119;-68
2022/06/30 02:50:25;;;;;;;3.17;2.13;;;18.00;99.90;;;;;;5075465;28;20041;-68
2022/06/30 02:52:51;;;;;;;3.15;2.15;;;18.00;99.90;;;;;;5057422;28;20093;-68
2022/06/30 02:55:17;;;;;;;3.20;1.98;;;18.00;99.90;;;;;;5075576;28;20071;-68
2022/06/30 02:57:43;;;;;;;3.72;2.45;;;17.90;99.90;;;;;;5075534;28;20037;-68
2022/06/30 03:00:10;;;;;;;4.82;1.90;;;18.00;99.90;;;;;;5057160;28;20047;-68
2022/06/30 03:02:37;;;;;;;3.17;2.30;;;17.90;99.90;;;;;;5057187;28;20048;-68
2022/06/30 03:05:03;;;;;;;3.03;2.00;;;17.90;99.90;;;;;;5075099;28;20040;-68
2022/06/30 03:07:29;;;;;;;2.53;1.83;;;17.90;99.90;;;;;;5075345;28;20054;-68
2022/06/30 03:09:55;;;;;;;2.47;2.05;;;17.90;99.90;;;;;;5056905;28;20254;-68
2022/06/30 03:12:20;;;;;;;3.78;2.10;;;17.80;99.90;;;;;;5057066;28;20049;-68
2022/06/30 03:14:47;;;;;;;2.72;1.88;;;17.80;99.90;;;;;;5057232;28;20049;-68
2022/06/30 03:17:13;;;;;;;2.65;1.73;;;18.00;99.90;;;;;;5075123;28;20483;-68
2022/06/30 03:19:39;;;;;;;2.58;1.92;;;17.80;99.90;;;;;;5074666;28;20111;-68
2022/06/30 03:22:05;;;;;;;2.50;1.80;;;17.70;99.90;;;;;;5075069;28;20047;-68
2022/06/30 03:24:30;;;;;;;4.22;2.28;;;17.70;99.90;;;;;;5074729;28;20039;-68
2022/06/30 03:26:56;;;;;;;3.42;2.30;;;17.90;99.90;;;;;;5057147;28;20048;-68
2022/06/30 03:29:22;;;;;;;4.55;2.15;;;17.60;99.90;;;;;;5074796;28;20353;-68
2022/06/30 03:31:47;;;;;;;4.28;2.28;;;17.60;99.90;;;;;;5056518;28;20495;-68
2022/06/30 03:34:13;;;;;;;2.58;2.08;;;17.70;99.90;;;;;;5056571;28;20040;-68
2022/06/30 03:36:39;;;;;;;3.88;2.28;;;17.60;99.90;;;;;;5074786;28;20036;-68
2022/06/30 03:39:05;;;;;;;2.35;1.95;;;17.60;99.90;;;;;;5056864;28;20480;-68
2022/06/30 03:41:31;;;;;;;2.80;1.85;;;17.50;99.90;;;;;;5074422;28;20120;-68
2022/06/30 03:43:56;;;;;;;2.70;1.90;;;17.60;99.90;;;;;;5074652;28;20075;-68
2022/06/30 03:46:22;;;;;;;3.85;2.42;;;17.50;99.90;;;;;;5074622;28;20040;-68
2022/06/30 03:48:48;;;;;;;3.20;1.98;;;17.50;99.90;;;;;;5074500;28;20070;-68
2022/06/30 03:51:14;;;;;;;5.20;1.92;;;17.50;99.90;;;;;;5056161;28;20392;-68
2022/06/30 03:53:39;;;;;;;2.75;1.88;;;17.50;99.90;;;;;;5074492;28;20107;-68
2022/06/30 03:56:05;;;;;;;5.05;2.30;;;17.50;99.90;;;;;;5074171;28;20040;-68
2022/06/30 03:58:31;;;;;;;2.33;1.88;;;17.50;99.90;;;;;;5039493;28;20055;-68
2022/06/30 04:00:57;;;;;;;3.28;2.00;;;17.50;99.90;;;;;;5072930;28;20400;-68
2022/06/30 04:03:22;;;;;;;2.97;2.22;;;17.60;99.90;;;;;;5074201;28;20047;-63
2022/06/30 04:05:48;;;;;;;2.85;1.83;;;17.50;99.90;;;;;;5039632;28;20052;-68
2022/06/30 04:08:14;;;;;;;3.45;2.13;;;17.50;99.90;;;;;;5055930;28;20093;-68
2022/06/30 04:10:40;;;;;;;3.47;2.38;;;17.60;99.90;;;;;;5073541;28;20084;-68
2022/06/30 04:13:05;;;;;;;4.03;2.40;;;17.60;99.90;;;;;;5074007;28;20040;-68
2022/06/30 04:15:31;;;;;;;4.80;2.35;;;17.60;99.90;;;;;;5073682;28;20093;-68
2022/06/30 04:17:57;;;;;;;3.20;2.00;;;17.80;99.90;;;;;;5073730;28;20029;-69
2022/06/30 04:20:22;;;;;;;3.13;2.30;;;17.60;99.90;;;;;;5055543;28;20048;-68
2022/06/30 04:22:50;;;;;;;5.28;2.40;;;17.60;99.90;;;;;;5055977;28;20131;-68
2022/06/30 04:25:16;;;;;;;3.78;1.90;;;17.70;99.90;;;;;;5073808;28;20467;-68
2022/06/30 04:27:46;;;;;;;4.30;2.20;;;17.90;99.90;;;;;;5073846;28;20053;-68
2022/06/30 04:30:13;;;;;;;3.28;2.08;;;17.70;99.90;;;;;;5073331;28;20454;-68
2022/06/30 04:32:39;;;;;;;2.85;1.95;;;17.80;99.90;;;;;;5072850;28;20400;-68
2022/06/30 04:35:08;;;;;;;2.80;2.25;;;17.80;99.90;;;;;;5055354;28;20119;-68
2022/06/30 04:37:33;;;;;;;4.85;2.65;;;17.90;99.90;;;;;;5072346;28;20037;-68
2022/06/30 04:42:43;;;;;;;2.97;2.10;;;18.00;99.90;;;;;;5055322;28;20101;-68
2022/06/30 04:45:09;;;;;;;2.92;2.15;;;18.00;99.90;;;;;;5038639;28;20048;-68
2022/06/30 04:47:36;;;;;;;7.63;2.60;;;18.00;99.90;;;;;;5073098;28;20067;-68
2022/06/30 04:50:03;;;;;;;3.95;2.72;;;18.10;99.90;;;;;;5073386;28;20115;-68
2022/06/30 04:52:29;;;;;;;4.55;2.25;;;18.10;99.90;;;;;;5055419;28;20063;-68
2022/06/30 04:54:55;;;;;;;3.15;2.22;;;18.20;99.90;;;;;;5073370;28;20072;-68
2022/06/30 04:57:21;;;;;;;3.40;2.40;;;18.20;99.90;;;;;;5055212;28;20513;-69
2022/06/30 04:59:46;;;;;;;3.63;2.40;;;18.30;99.90;;;;;;5073271;28;20112;-68
2022/06/30 05:02:12;;;;;;;4.05;2.45;;;18.30;99.90;;;;;;5055014;28;20039;-68
2022/06/30 05:04:37;;;;;;;4.15;1.98;;;18.40;99.90;;;;;;5073189;28;20044;-68
2022/06/30 05:07:03;;;;;;;4.00;2.45;;;18.50;99.90;;;;;;5073577;28;20032;-67
2022/06/30 05:09:29;;;;;;;5.88;2.70;;;18.50;99.90;;;;;;5051588;28;20117;-68
2022/06/30 05:11:54;;;;;;;4.63;2.53;;;18.60;99.90;;;;;;5052754;28;20092;-67
2022/06/30 05:14:20;;;;;;;3.88;2.53;;;18.60;99.90;;;;;;5051539;28;20090;-68
2022/06/30 05:16:46;;;;;;;4.68;2.33;;;18.70;99.90;;;;;;5053054;28;20059;-68
2022/06/30 05:19:11;;;;;;;4.72;2.25;;;18.70;99.90;;;;;;5052698;28;20459;-68
2022/06/30 05:21:37;;;;;;;5.10;2.70;;;18.70;99.90;;;;;;5051406;28;20041;-67
2022/06/30 05:26:47;;;;;;;3.42;2.38;;;18.70;99.90;;;;;;5052932;28;20045;-68
2022/06/30 05:29:12;;;;;;;3.38;2.35;;;18.70;99.90;;;;;;5052918;28;20052;-68
2022/06/30 05:31:38;;;;;;;3.88;2.50;;;18.80;99.90;;;;;;5051339;28;20048;-69
2022/06/30 05:34:03;;;;;;;3.88;2.63;;;18.90;99.90;;;;;;5051333;28;20377;-69
2022/06/30 05:36:29;;;;;;;6.50;2.20;;;19.00;99.90;;;;;;5052808;28;20068;-69
2022/06/30 05:38:55;;;;;;;4.25;2.38;;;19.20;99.90;;;;;;5052851;28;20037;-68
2022/06/30 05:41:20;;;;;;;3.13;2.33;;;19.20;99.90;;;;;;5052586;28;20096;-69
2022/06/30 05:43:46;;;;;;;4.20;2.95;;;19.40;99.90;;;;;;5055583;28;20129;-70
2022/06/30 05:46:12;;;;;;;3.63;2.58;;;19.50;99.90;;;;;;5055337;28;20047;-67
2022/06/30 05:48:37;;;;;;;3.28;2.42;;;19.60;99.90;;;;;;5055158;28;20126;-68
2022/06/30 05:51:03;;;;;;;4.00;2.83;;;19.60;99.90;;;;;;5056371;28;20045;-69
2022/06/30 05:53:29;;;;;;;6.32;2.67;;;19.80;99.90;;;;;;5055182;28;20087;-68
2022/06/30 05:55:55;;;;;;;3.75;2.35;;;19.90;99.90;;;;;;5056844;28;20033;-70
2022/06/30 05:58:20;;;;;;;3.63;2.80;;;20.00;99.90;;;;;;5038524;28;20041;-70
2022/06/30 06:00:46;;;;;;;3.60;2.47;;;20.10;99.90;;;;;;5055779;28;20057;-68
2022/06/30 06:03:12;;;;;;;3.00;2.05;;;20.20;99.90;;;;;;5056523;28;20075;-68
2022/06/30 06:05:37;;;;;;;3.10;2.13;;;20.20;99.90;;;;;;5056467;28;20040;-69
2022/06/30 06:08:07;;;;;;;3.28;2.20;;;20.20;99.90;;;;;;5056291;28;20542;-68
2022/06/30 06:10:33;;;;;;;4.03;2.55;;;20.30;99.90;;;;;;5070606;28;20113;-67
2022/06/30 06:12:59;;;;;;;5.13;2.20;;;20.40;99.90;;;;;;5057879;28;20036;-67
2022/06/30 06:15:25;;;;;;;4.35;2.50;;;20.50;99.90;;;;;;5076100;28;20074;-67
2022/06/30 06:17:50;;;;;;;3.97;2.88;;;20.70;99.90;;;;;;5076016;28;20043;-67
2022/06/30 06:20:17;;;;;;;3.88;2.55;;;20.80;99.90;;;;;;5075910;28;20052;-66
2022/06/30 06:22:44;;;;;;;4.78;2.72;;;21.00;99.90;;;;;;5075770;28;20048;-69
2022/06/30 06:25:11;;;;;;;4.63;2.85;;;21.10;99.90;;;;;;5057804;28;20036;-68
2022/06/30 06:27:37;;;;;;;4.35;2.63;;;21.20;99.90;;;;;;5075500;28;20059;-69
2022/06/30 06:30:04;;;;;;;3.15;2.42;;;21.20;99.90;;;;;;5075649;28;20613;-70
2022/06/30 06:32:31;;;;;;;3.17;2.40;;;21.30;99.90;;;;;;5057707;28;20387;-70
2022/06/30 06:34:58;;;;;;;4.35;2.65;;;21.40;99.90;;;;;;5074139;28;20051;-70
2022/06/30 06:37:24;;;;;;;5.50;2.17;;;21.50;99.90;;;;;;5057475;28;20090;-72
2022/06/30 06:39:50;;;;;;;5.00;2.70;;;21.60;99.90;;;;;;5057790;28;20549;-71
2022/06/30 06:42:15;;;;;;;3.15;2.35;;;21.60;99.90;;;;;;5075619;28;20040;-70
2022/06/30 06:44:41;;;;;;;4.03;2.78;;;21.70;99.90;;;;;;5057544;28;20399;-71
2022/06/30 06:47:07;;;;;;;3.92;2.40;;;21.80;99.90;;;;;;5057405;28;20388;-71
2022/06/30 06:49:33;;;;;;;3.67;2.20;;;22.00;99.90;;;;;;5057618;28;20040;-71
2022/06/30 06:51:59;;;;;;;4.07;2.45;;;22.00;99.90;;;;;;5040789;28;20127;-71
2022/06/30 06:54:24;;;;;;;4.13;2.50;;;22.10;99.90;;;;;;5056502;28;20037;-71
2022/06/30 06:56:50;;;;;;;3.80;2.13;;;22.30;99.90;;;;;;5057414;28;20036;-71
2022/06/30 06:59:16;;;;;;;3.33;2.08;;;22.20;99.90;;;;;;5040720;28;20048;-70
2022/06/30 07:01:42;;;;;;;2.47;1.88;;;22.20;99.90;;;;;;5057322;28;20036;-70
2022/06/30 07:04:08;;;;;;;3.47;2.65;;;22.40;99.90;;;;;;5040520;28;20148;-71
2022/06/30 07:06:34;;;;;;;3.53;2.20;;;22.30;99.90;;;;;;5073998;28;20522;-71
2022/06/30 07:09:01;;;;;;;4.65;2.53;;;22.40;99.90;;;;;;5057131;28;20071;-71
2022/06/30 07:11:26;;;;;;;3.85;1.98;;;22.60;99.90;;;;;;5057015;28;20060;-71
2022/06/30 07:13:52;;;;;;;6.55;2.30;;;;;;;;;;5057149;28;20450;-72
2022/06/30 07:16:18;;;;;;;3.15;2.00;;;22.60;99.90;;;;;;5057028;28;20098;-71
2022/06/30 07:18:44;;;;;;;4.35;2.58;;;22.70;99.90;;;;;;5073615;28;20044;-71
2022/06/30 07:21:10;;;;;;;4.47;2.80;;;22.70;99.90;;;;;;5056857;28;20476;-71
2022/06/30 07:23:35;;;;;;;3.45;2.35;;;22.60;99.90;;;;;;5056846;28;20050;-71
2022/06/30 07:26:01;;;;;;;3.95;2.53;;;22.70;99.90;;;;;;5056914;28;20044;-71
2022/06/30 07:28:27;;;;;;;5.35;2.53;;;22.90;99.90;;;;;;5073319;28;20045;-71
2022/06/30 07:30:53;;;;;;;5.00;2.40;;;23.00;99.90;;;;;;5056637;28;20040;-71
2022/06/30 07:33:19;;;;;;;4.10;2.63;;;23.10;99.90;;;;;;5057137;28;20472;-71
2022/06/30 07:35:45;;;;;;;3.30;2.00;;;23.20;99.90;;;;;;5056526;28;20032;-71
2022/06/30 07:38:11;;;;;;;3.95;2.67;;;23.50;99.90;;;;;;5073546;28;20037;-71
2022/06/30 07:40:37;;;;;;;3.78;2.60;;;;;;;;;;5056662;28;20044;-71
2022/06/30 07:43:03;;;;;;;3.50;2.58;;;;;;;;;;5056497;28;20046;-71
2022/06/30 07:45:30;;;;;;;4.55;2.63;;;;;;;;;;5056364;28;20044;-71
2022/06/30 07:47:56;;;;;;;4.03;2.60;;;;;;;;;;5074355;28;20048;-71
2022/06/30 07:50:22;;;;;;;3.65;2.58;;;;;;;;;;5056276;28;20048;-72
2022/06/30 07:52:48;;;;;;;5.53;2.70;;;;;;;;;;5056345;28;20037;-71
2022/06/30 07:55:15;;;;;;;6.78;3.00;;;;;;;;;;5056446;28;20123;-71
2022/06/30 07:57:42;;;;;;;3.22;2.50;;;;;;;;;;5074382;28;20041;-72
2022/06/30 08:00:09;;;;;;;7.30;2.60;;;;;;;;;;5056171;28;20040;-71
2022/06/30 08:02:35;;;;;;;3.97;2.20;;;;;;;;;;5055889;28;20047;-72
2022/06/30 08:05:02;;;;;;;4.43;2.75;;;;;;;;;;5039428;28;20033;-71
2022/06/30 08:07:28;;;;;;;5.82;3.10;;;;;;;;;;5055811;28;20047;-72
2022/06/30 08:09:54;;;;;;;5.15;2.53;;;;;;;;;;5055632;28;20128;-72
2022/06/30 08:12:21;;;;;;;3.92;2.20;;;;;;;;;;5055766;28;20048;-72
2022/06/30 08:14:47;;;;;;;4.65;2.45;;;;;;;;;;5056074;28;20037;-71
2022/06/30 08:17:13;;;;;;;4.47;2.60;;;;;;;;;;5055734;28;20047;-72
2022/06/30 08:19:41;;;;;;;4.97;2.58;;;;;;;;;;5073872;28;20476;-72
2022/06/30 08:22:07;;;;;;;4.40;3.03;;;;;;;;;;5055845;28;20094;-72
2022/06/30 08:24:33;;;;;;;4.35;2.80;;;;;;;;;;5073800;28;20090;-71
2022/06/30 08:27:02;;;;;;;3.72;2.47;;;;;;;;;;5055928;28;20115;-72
2022/06/30 08:29:28;;;;;;;4.32;2.90;;;24.90;99.90;;;;;;5038983;28;20044;-72
2022/06/30 08:31:54;;;;;;;4.10;2.65;;;24.80;99.90;;;;;;5072211;28;20037;-72
2022/06/30 08:34:20;;;;;;;4.65;2.78;;;24.90;99.90;;;;;;5072156;28;20052;-71
2022/06/30 08:36:45;;;;;;;3.90;2.97;;;25.00;99.90;;;;;;5055532;28;20182;-71
2022/06/30 08:42:02;;;;;;;3.88;2.67;;;25.00;99.90;;;;;;5073637;28;20111;-71
2022/06/30 08:42:03;;;;;;;4.75;2.72;;;25.10;99.90;;;;;;5073318;28;20138;-71
2022/06/30 08:44:37;;;;;;;3.97;2.55;;;25.10;99.90;;;;;;5055475;28;20055;-71
2022/06/30 08:47:04;;;;;;;4.28;2.70;;;25.20;99.90;;;;;;5038740;28;20098;-71
2022/06/30 08:49:31;;;;;;;4.72;3.00;;;25.30;99.90;;;;;;5055204;28;20036;-71
2022/06/30 08:51:58;;;;;;;3.53;2.42;;;25.30;99.90;;;;;;5055221;28;20044;-71
2022/06/30 08:54:30;;;;;;;4.57;3.45;;;25.30;99.90;;;;;;5055208;28;20093;-71
2022/06/30 08:56:59;;;;;;;4.53;2.67;;;25.40;99.90;;;;;;5073443;28;20040;-71
2022/06/30 08:59:25;;;;;;;5.00;2.90;;;25.50;99.90;;;;;;5073411;28;20032;-71
2022/06/30 09:01:54;;;;;;;3.65;2.60;;;25.60;99.90;;;;;;5055673;28;20098;-71
2022/06/30 09:04:21;;;;;;;6.25;3.50;;;25.60;99.90;;;;;;5055040;28;20048;-71
2022/06/30 09:06:46;;;;;;;4.88;2.80;;;25.60;99.90;;;;;;5055503;28;20048;-71
2022/06/30 09:09:12;;;;;;;5.93;2.80;;;25.70;99.90;;;;;;5051768;28;20041;-70
2022/06/30 09:11:53;;;;;;;4.53;2.90;;;25.80;99.90;;;;;;5051478;28;20110;-71
2022/06/30 09:14:41;;;;;;;5.20;3.13;;;26.00;99.90;;;;;;5051603;28;20037;-71
2022/06/30 09:17:10;;;;;;;5.03;3.15;;;26.00;99.90;;;;;;5051237;28;20048;-71
2022/06/30 09:19:40;;;;;;;7.28;3.10;;;26.00;99.90;;;;;;5051794;28;20544;-71
2022/06/30 09:22:14;;;;;;;5.35;3.55;;;26.10;99.90;;;;;;5051769;28;20049;-71
2022/06/30 09:24:40;;;;;;;5.85;3.78;;;26.30;99.90;;;;;;5034837;28;20123;-71
2022/06/30 09:27:12;;;;;;;7.32;3.10;;;26.20;99.90;;;;;;5051602;28;20053;-71
2022/06/30 09:29:46;;;;;;;4.03;3.10;;;26.30;99.90;;;;;;5051519;28;20495;-71
2022/06/30 09:32:12;;;;;;;4.60;3.10;;;26.20;99.90;;;;;;5052787;28;20037;-71
2022/06/30 09:34:38;;;;;;;5.53;3.22;;;26.20;99.90;;;;;;5052596;28;20099;-71
2022/06/30 09:37:19;;;;;;;5.45;3.17;;;26.40;99.90;;;;;;5052993;28;20106;-71
2022/06/30 09:39:45;;;;;;;4.60;3.47;;;26.50;99.90;;;;;;5051358;28;20124;-71
2022/06/30 09:42:12;;;;;;;4.40;3.17;;;26.50;99.90;;;;;;5052559;28;20045;-71
2022/06/30 09:44:38;;;;;;;5.35;3.80;;;26.60;99.90;;;;;;5051369;28;20057;-71
2022/06/30 09:47:07;;;;;;;4.53;3.10;;;26.60;99.90;;;;;;5051239;28;20044;-71
2022/06/30 09:49:42;;;;;;;4.07;3.33;;;26.60;99.90;;;;;;5052833;28;20120;-71
2022/06/30 09:52:25;;;;;;;4.40;3.22;;;26.70;99.90;;;;;;5051231;28;20507;-71
2022/06/30 09:54:59;;;;;;;6.05;3.55;;;26.80;99.90;;;;;;5051226;28;20041;-71
2022/06/30 09:57:28;;;;;;;5.60;3.83;;;26.80;99.90;;;;;;5051205;28;20162;-71
2022/06/30 10:00:10;;;;;;;4.95;3.80;;;26.90;99.90;;;;;;5052715;28;20041;-71
2022/06/30 10:02:39;;;;;;;6.82;3.65;;;26.90;99.90;;;;;;5052491;28;20041;-71
2022/06/30 10:05:06;;;;;;;7.53;3.42;;;27.00;99.90;;;;;;5051173;28;20037;-72
2022/06/30 10:07:35;;;;;;;5.75;2.70;;;27.00;99.90;;;;;;5052291;28;20178;-69
2022/06/30 10:10:04;;;;;;;4.70;3.30;;;27.10;99.90;;;;;;5051095;28;20049;-68
2022/06/30 10:12:31;;;;;;;4.63;3.13;;;27.00;99.90;;;;;;5052530;28;20049;-68
2022/06/30 10:14:56;;;;;;;5.35;3.97;;;27.00;99.90;;;;;;5051106;28;20094;-68
2022/06/30 10:17:29;;;;;;;5.13;3.20;;;27.00;99.90;;;;;;5051175;28;20111;-69
2022/06/30 10:19:56;;;;;;;4.15;3.30;;;27.20;99.90;;;;;;5052613;28;20170;-64
2022/06/30 10:22:23;;;;;;;6.32;4.07;;;27.30;99.90;;;;;;5052157;28;20037;-69
2022/06/30 10:24:51;;;;;;;4.95;3.85;;;27.20;99.90;;;;;;5050997;28;20414;-70
2022/06/30 10:27:18;;;;;;;5.13;3.88;;;27.30;99.90;;;;;;5050915;28;20120;-67
2022/06/30 10:29:59;;;;;;;4.10;3.03;;;27.30;99.90;;;;;;5053317;28;20044;-69
2022/06/30 10:32:49;;;;;;;5.50;3.65;;;27.30;99.90;;;;;;5055835;28;20047;-70
2022/06/30 10:35:21;;;;;;;4.97;3.15;;;27.40;99.90;;;;;;5054592;28;20041;-71
2022/06/30 10:38:03;;;;;;;6.57;3.55;;;27.50;99.90;;;;;;5054402;28;20052;-73
2022/06/30 10:40:36;;;;;;;4.05;3.10;;;27.60;99.90;;;;;;5054477;28;20052;-71
2022/06/30 10:43:02;;;;;;;3.92;3.28;;;27.60;99.90;;;;;;5054693;28;20507;-72
2022/06/30 10:45:30;;;;;;;4.07;3.28;;;27.50;99.90;;;;;;5054312;28;20044;-72
2022/06/30 10:47:57;;;;;;;6.40;4.05;;;27.60;99.90;;;;;;5054201;28;20052;-72
2022/06/30 10:50:36;;;;;;;4.35;3.47;;;27.60;99.90;;;;;;5054109;28;20047;-72
2022/06/30 10:53:07;;;;;;;5.18;3.13;;;27.70;99.90;;;;;;5037943;28;20047;-72
2022/06/30 10:55:54;;;;;;;6.13;3.65;;;27.70;99.90;;;;;;5054060;28;20043;-73
2022/06/30 10:58:21;;;;;;;4.97;3.53;;;27.60;99.90;;;;;;5054298;28;20527;-72
2022/06/30 11:00:56;;;;;;;4.85;3.00;;;27.60;99.90;;;;;;5053955;28;20052;-71
2022/06/30 11:03:39;;;;;;;4.97;3.92;;;27.50;99.90;;;;;;5055393;28;20480;-72
2022/06/30 11:06:12;;;;;;;5.22;3.47;;;27.20;99.90;;;;;;5037128;28;20124;-72
2022/06/30 11:08:57;;;;;;;3.95;3.03;;;27.00;99.90;;;;;;5053856;28;20141;-71
2022/06/30 11:11:23;;;;;;;4.38;3.03;;;26.80;99.90;;;;;;5033820;28;20453;-71
2022/06/30 11:13:50;;;;;;;5.50;3.95;;;26.60;99.90;;;;;;5033856;28;20126;-71
2022/06/30 11:16:18;;;;;;;3.78;2.97;;;26.50;99.90;;;;;;5033548;28;20045;-70
2022/06/30 11:18:44;;;;;;;5.40;3.47;;;26.50;99.90;;;;;;5033615;28;20041;-72
2022/06/30 11:21:10;;;;;;;4.70;3.53;;;26.40;99.90;;;;;;5033813;28;20500;-72
2022/06/30 11:23:40;;;;;;;7.75;4.20;;;26.50;99.90;;;;;;5033722;28;20139;-70
2022/06/30 11:28:54;;;;;;;7.78;4.05;;;26.70;99.90;;;;;;5033528;28;19917;-71
2022/06/30 11:31:32;;;;;;;5.40;4.10;;;26.90;99.90;;;;;;5033401;28;20052;-72
2022/06/30 11:34:09;;;;;;;5.47;4.18;;;27.10;99.90;;;;;;5034963;28;20498;-72
2022/06/30 11:36:37;;;;;;;5.35;3.72;;;27.10;99.90;;;;;;5017015;28;20037;-71
2022/06/30 11:39:11;;;;;;;5.68;4.28;;;27.00;99.90;;;;;;5033511;28;20041;-72
2022/06/30 11:41:57;;;;;;;5.05;3.45;;;26.80;99.90;;;;;;5033022;28;20048;-68
2022/06/30 11:44:34;;;;;;;5.70;4.25;;;26.60;99.90;;;;;;5033286;28;20080;-72
2022/06/30 11:47:10;;;;;;;5.95;4.28;;;26.50;99.90;;;;;;5033250;28;20080;-72
2022/06/30 11:49:53;;;;;;;5.03;3.53;;;26.50;99.90;;;;;;5033072;28;20053;-72
2022/06/30 11:52:28;;;;;;;5.75;4.10;;;26.60;99.90;;;;;;5033981;28;20043;-72
2022/06/30 11:54:57;;;;;;;4.93;3.75;;;26.70;99.90;;;;;;5032839;28;20099;-72
2022/06/30 11:57:25;;;;;;;5.18;3.90;;;26.90;99.90;;;;;;5016363;28;20038;-72
2022/06/30 11:59:57;;;;;;;6.78;3.92;;;26.90;99.90;;;;;;5033060;28;20057;-72
2022/06/30 12:02:23;;;;;;;5.10;3.50;;;27.00;99.90;;;;;;5032910;28;20049;-71
2022/06/30 12:04:57;;;;;;;3.97;3.17;;;27.20;99.90;;;;;;5032878;28;20045;-72
2022/06/30 12:07:24;;;;;;;4.20;3.10;;;27.40;99.90;;;;;;5033030;28;20052;-72
2022/06/30 12:09:51;;;;;;;5.03;3.15;;;27.50;99.90;;;;;;5041350;28;20053;-72
2022/06/30 12:12:23;;;;;;;3.67;2.72;;;27.70;99.90;;;;;;5052596;28;20575;-72
2022/06/30 12:14:54;;;;;;;3.15;2.20;;;27.70;99.90;;;;;;5036019;28;20037;-72
2022/06/30 12:17:20;;;;;;;4.57;2.67;;;27.60;99.90;;;;;;5052552;28;20037;-72
2022/06/30 12:19:47;;;;;;;4.25;2.58;;;27.50;99.90;;;;;;5036220;28;20072;-71
2022/06/30 12:22:13;;;;;;;4.47;2.63;;;27.40;99.90;;;;;;5035724;28;20124;-72
2022/06/30 12:24:40;;;;;;;3.80;2.92;;;27.40;99.90;;;;;;5035638;28;20526;-72
2022/06/30 12:27:07;;;;;;;3.85;2.80;;;27.40;99.90;;;;;;5053669;28;20036;-72
2022/06/30 12:29:32;;;;;;;3.17;2.47;;;27.30;99.90;;;;;;5052540;28;20076;-72
2022/06/30 12:32:10;;;;;;;3.80;2.45;;;27.30;99.90;;;;;;5052325;28;20130;-72
2022/06/30 12:34:50;;;;;;;4.05;2.50;;;27.30;99.90;;;;;;5035529;28;20051;-72
2022/06/30 12:37:15;;;;;;;5.05;3.00;;;27.30;99.90;;;;;;5052063;28;20036;-73
2022/06/30 12:39:45;;;;;;;3.92;2.72;;;27.20;99.90;;;;;;5052066;28;20626;-72
2022/06/30 12:42:11;;;;;;;6.47;2.80;;;27.10;99.90;;;;;;5051993;28;20053;-72
2022/06/30 12:44:38;;;;;;;3.13;2.50;;;27.00;99.90;;;;;;5052051;28;20045;-72
2022/06/30 12:47:05;;;;;;;7.30;2.92;;;27.00;99.90;;;;;;5053497;28;20044;-72
2022/06/30 12:49:31;;;;;;;3.45;2.65;;;27.00;99.90;;;;;;5051989;28;20037;-72
2022/06/30 12:51:57;;;;;;;3.72;2.53;;;27.00;99.90;;;;;;5051402;28;20053;-72
2022/06/30 12:54:24;;;;;;;4.45;2.90;;;26.90;99.90;;;;;;5052971;28;20112;-72
2022/06/30 12:56:50;;;;;;;3.42;2.67;;;26.90;99.90;;;;;;5051821;28;20045;-72
2022/06/30 12:59:20;;;;;;;5.38;2.78;;;26.90;99.90;;;;;;5053582;28;20037;-72
2022/06/30 13:01:54;;;;;;;4.70;2.92;;;26.90;99.90;;;;;;5051796;28;20132;-72
2022/06/30 13:04:22;;;;;;;3.95;2.90;;;27.00;99.90;;;;;;5051763;28;20040;-72
2022/06/30 13:06:50;;;;;;;3.42;2.38;;;27.10;99.90;;;;;;5051735;28;20055;-72